Hlavní strana
METAR-TAF:

METAR-TAF

Letiště :

Bahrajn, Bahrajn

zeměpisná šířka: 26-16N, zeměpisná délka: 050-39E, výška: 2 m

Aktuální stav počasí

Zpráva byla vytvořena před 31 minutami, v 08:30 UTC
Severní vítr 8 kt
Teplota 25°C
Vlhkost vzduchu 50%
Tlak 1016 hPa
Viditelnost 10 km a více
Žádná oblačnost pod 1500 m, nevyskytují se cumulonimby.

METAR: OBBI 100830Z 01008KT CAVOK 25/14 Q1016 NOSIG

Čas: 12:01 (09:01 UTC)

Předpověď počasí

Zpráva byla vytvořena před 4 hodinami a 1 minutami, v 05:00 UTC
Předpověď platná od 10 v 06 UTC do 11 v 12 UTC
Severní vítr 10 kt
Viditelnost 10 km a více
Žádná oblačnost pod 1500 m, nevyskytují se cumulonimby.
Změna
od 10 v 20 UTC do 10 v 22 UTC
Severní vítr 13 kt s nárazy do 23 kt
Polojasno ve výšce 2500 ft

TAF: OBBI 100500Z 1006/1112 01010KT CAVOK BECMG 1020/1022 35013G23KT SCT025

Stav a předpovědi počasí z více než 4 000 letišť (zprávy METAR a TAF).

Červené a žluté tečky na mapě představují dostupné meteorologické stanice.

Když kurzor umístíte na tečku, zobrazí se název stanice.

Pak kliknutím zobrazíte stav a předpověď počasí.

Chcete-li změnit mapu, kliknutím na zelené tlačítko se znaménkem +mapu přiblížíte, kliknutím na zelené tlačítko se znaménkem – mapu oddálíte a kliknutím na zelené šipky přejdete na sousední mapy.


METAR-TAF: